Time;durP1;ratioP1;P1;durP2;ratioP2;P2;SDS_P1;SDS_P2;PMS_P1;PMS_P2;Temp;Humidity;BMP_temperature;BMP_pressure;BME280_temperature;BME280_humidity;BME280_pressure;Samples;Min_cycle;Max_cycle;Signal;HPM_P1;HPM_P2
2022/11/30 00:01:18;;;;;;;20.80;15.20;;;;;;;8.69;100.00;99818.63;5092099;28;20198;-66
2022/11/30 00:03:45;;;;;;;22.43;16.20;;;;;;;8.69;100.00;99812.50;5092214;28;20612;-66
2022/11/30 00:06:15;;;;;;;26.00;15.90;;;;;;;8.71;100.00;99813.16;5088933;28;20241;-66
2022/11/30 00:08:42;;;;;;;18.80;13.33;;;;;;;8.72;100.00;99812.16;5072284;28;20659;-66
2022/11/30 00:11:12;;;;;;;16.97;13.00;;;;;;;8.74;100.00;99810.16;5071553;28;20192;-67
2022/11/30 00:13:38;;;;;;;20.40;13.13;;;;;;;8.73;100.00;99813.78;5071895;28;20250;-66
2022/11/30 00:16:07;;;;;;;15.83;12.77;;;;;;;8.71;100.00;99805.22;5071981;28;20196;-66
2022/11/30 00:18:33;;;;;;;14.97;12.23;;;;;;;8.74;100.00;99815.47;5071931;28;20692;-66
2022/11/30 00:21:01;;;;;;;17.93;13.00;;;;;;;8.72;100.00;99812.16;5071662;28;20192;-66
2022/11/30 00:23:32;;;;;;;18.23;13.60;;;;;;;8.62;100.00;99811.56;5071873;28;20382;-65
2022/11/30 00:26:01;;;;;;;16.97;13.10;;;;;;;8.54;100.00;99808.97;5072019;28;20618;-66
2022/11/30 00:28:28;;;;;;;16.27;12.27;;;;;;;8.52;100.00;99806.50;5071683;28;20626;-66
2022/11/30 00:30:58;;;;;;;16.23;12.87;;;;;;;8.53;100.00;99818.72;5084973;28;20229;-65
2022/11/30 00:33:25;;;;;;;16.17;12.93;;;;;;;8.54;100.00;99808.97;5092793;28;20187;-65
2022/11/30 00:35:58;;;;;;;17.27;12.67;;;;;;;8.44;100.00;99797.78;5091995;28;20291;-65
2022/11/30 00:38:25;;;;;;;18.00;13.70;;;;;;;8.36;100.00;99800.47;5076308;28;20729;-65
2022/11/30 00:40:55;;;;;;;16.93;12.67;;;;;;;8.41;100.00;99814.03;5071217;28;20628;-65
2022/11/30 00:43:22;;;;;;;19.47;13.00;;;;;;;8.48;100.00;99809.66;5071321;28;20192;-66
2022/11/30 00:45:49;;;;;;;16.73;13.50;;;;;;;8.44;100.00;99795.97;5071845;28;20195;-65
2022/11/30 00:48:16;;;;;;;20.60;15.30;;;;;;;8.37;100.00;99802.94;5071537;28;20192;-65
2022/11/30 00:50:42;;;;;;;21.83;14.30;;;;;;;8.36;100.00;99800.47;5071773;28;20195;-66
2022/11/30 00:53:09;;;;;;;18.00;14.10;;;;;;;8.37;100.00;99799.50;5071192;28;20253;-66
2022/11/30 00:55:36;;;;;;;19.83;14.57;;;;;;;8.37;100.00;99799.50;5072153;28;20220;-66
2022/11/30 00:58:05;;;;;;;25.50;16.17;;;;;;;8.34;100.00;99792.69;5075705;28;20332;-65
2022/11/30 01:00:32;;;;;;;10.80;9.57;;;;;;;8.33;100.00;99795.53;5075553;28;20284;-65
2022/11/30 01:02:59;;;;;;;9.30;8.40;;;;;;;8.30;100.00;99790.59;5074955;28;20195;-65
2022/11/30 01:05:26;;;;;;;11.70;10.17;;;;;;;8.32;100.00;99799.16;5074669;28;20230;-66
2022/11/30 01:07:53;;;;;;;9.93;8.83;;;;;;;8.28;100.00;99798.69;5091678;28;20191;-66
2022/11/30 01:10:21;;;;;;;10.03;7.83;;;;;;;8.26;100.00;99797.22;5095636;28;20536;-67
2022/11/30 01:12:48;;;;;;;8.17;7.53;;;;;;;8.14;100.00;99774.78;5094714;28;20746;-67
2022/11/30 01:15:16;;;;;;;7.73;7.03;;;;;;;8.24;100.00;99793.91;5095510;28;20266;-67
2022/11/30 01:17:43;;;;;;;7.00;6.40;;;;;;;8.26;100.00;99789.28;5094777;28;20284;-66
2022/11/30 01:20:10;;;;;;;8.43;7.57;;;;;;;8.24;100.00;99807.16;5094655;28;20244;-66
2022/11/30 01:22:37;;;;;;;8.43;7.70;;;;;;;8.27;100.00;99802.34;5094489;28;20234;-66
2022/11/30 01:25:04;;;;;;;8.90;8.10;;;;;;;8.26;100.00;99794.59;5094903;28;20199;-66
2022/11/30 01:27:31;;;;;;;8.17;7.47;;;;;;;8.23;100.00;99793.13;5094685;28;20195;-67
2022/11/30 01:29:58;;;;;;;9.93;8.80;;;;;;;8.25;100.00;99795.59;5094365;28;20192;-66
2022/11/30 01:32:26;;;;;;;9.47;8.53;;;;;;;8.31;100.00;99792.22;5094324;28;20667;-67
2022/11/30 01:34:53;;;;;;;12.47;10.73;;;;;;;8.32;100.00;99788.59;5094612;28;20272;-67
2022/11/30 01:37:19;;;;;;;8.80;7.90;;;;;;;8.28;100.00;99789.94;5094808;28;20203;-68
2022/11/30 01:39:46;;;;;;;8.83;7.93;;;;;;;8.27;100.00;99791.78;5094309;28;20253;-67
2022/11/30 01:42:15;;;;;;;9.67;8.70;;;;;;;8.29;100.00;99791.59;5094125;28;20744;-67
2022/11/30 01:44:51;;;;;;;7.07;6.57;;;;;;;8.36;100.00;99784.59;5094520;28;20252;-66
2022/11/30 01:47:22;;;;;;;8.03;7.30;;;;;;;8.39;100.00;99787.72;5094150;28;20183;-67
2022/11/30 01:49:56;;;;;;;8.20;7.40;;;;;;;8.41;100.00;99783.06;5094756;28;20260;-67
2022/11/30 01:52:28;;;;;;;7.97;7.17;;;;;;;8.43;100.00;99782.91;5095005;28;20178;-67
2022/11/30 01:55:00;;;;;;;8.23;7.43;;;;;;;8.43;100.00;99783.72;5084896;28;20204;-66
2022/11/30 01:57:31;;;;;;;8.17;7.37;;;;;;;8.47;100.00;99786.84;5074366;28;20276;-66
2022/11/30 02:00:01;;;;;;;7.73;7.07;;;;;;;8.50;100.00;99781.22;5073731;28;20233;-67
2022/11/30 02:02:36;;;;;;;7.27;6.67;;;;;;;8.52;100.00;99779.19;5074099;28;20234;-67
2022/11/30 02:05:04;;;;;;;8.43;7.60;;;;;;;8.56;100.00;99785.78;5074394;28;20248;-67
2022/11/30 02:07:31;;;;;;;9.33;8.23;;;;;;;8.55;100.00;99776.19;5086711;28;20196;-67
2022/11/30 02:09:58;;;;;;;8.47;7.67;;;;;;;8.52;100.00;99774.72;5094796;28;20595;-67
2022/11/30 02:12:34;;;;;;;9.40;8.60;;;;;;;8.52;100.00;99773.91;5094359;28;20190;-66
2022/11/30 02:15:08;;;;;;;11.77;10.67;;;;;;;8.54;100.00;99767.41;5094476;28;20258;-66
2022/11/30 02:17:45;;;;;;;15.20;13.70;;;;;;;8.59;100.00;99769.56;5093582;28;20249;-66
2022/11/30 02:20:40;;;;;;;18.50;16.63;;;;;;;8.66;100.00;99770.50;5093814;28;20195;-66
2022/11/30 02:23:26;;;;;;;16.23;14.63;;;;;;;8.69;100.00;99770.13;5093439;28;20608;-67
2022/11/30 02:26:02;;;;;;;14.63;13.23;;;;;;;8.69;100.00;99773.59;5093388;28;20252;-66
2022/11/30 02:28:58;;;;;;;19.60;15.30;;;;;;;8.72;100.00;99780.38;5093728;28;20553;-66
2022/11/30 02:31:28;;;;;;;18.60;13.90;;;;;;;8.68;100.00;99781.72;5093670;28;20266;-66
2022/11/30 02:33:59;;;;;;;14.83;13.07;;;;;;;8.64;100.00;99780.44;5093820;28;20187;-66
2022/11/30 02:36:28;;;;;;;13.53;11.70;;;;;;;8.61;100.00;99778.13;5094338;28;20207;-66
2022/11/30 02:38:56;;;;;;;12.50;11.17;;;;;;;8.57;100.00;99782.13;5093421;28;20245;-66
2022/11/30 02:41:23;;;;;;;13.87;11.97;;;;;;;8.55;100.00;99773.56;5093679;28;20212;-66
2022/11/30 02:43:51;;;;;;;11.23;9.90;;;;;;;8.52;100.00;99785.31;5093349;28;20191;-66
2022/11/30 02:46:23;;;;;;;11.87;10.77;;;;;;;8.51;100.00;99788.13;5093363;28;20199;-66
2022/11/30 02:48:56;;;;;;;10.70;9.60;;;;;;;8.50;100.00;99786.50;5093398;28;20183;-67
2022/11/30 02:51:26;;;;;;;14.93;11.03;;;;;;;8.51;100.00;99793.44;5093765;28;20585;-67
2022/11/30 02:53:54;;;;;;;11.40;10.20;;;;;;;8.50;100.00;99797.09;5092725;28;20220;-67
2022/11/30 02:56:21;;;;;;;18.00;12.00;;;;;;;8.46;100.00;99795.78;5093100;28;20227;-67
2022/11/30 02:58:48;;;;;;;18.00;13.67;;;;;;;8.46;100.00;99793.16;5092719;28;20274;-67
2022/11/30 03:01:16;;;;;;;68.30;36.77;;;;;;;8.42;100.00;99790.00;5093033;28;20191;-67
2022/11/30 03:03:43;;;;;;;61.57;34.60;;;;;;;8.46;100.00;99795.78;5092560;28;20671;-67
2022/11/30 03:06:10;;;;;;;43.13;26.23;;;;;;;8.51;100.00;99788.97;5089666;28;20196;-66
2022/11/30 03:08:37;;;;;;;30.30;18.87;;;;;;;8.50;100.00;99786.50;5072251;28;20232;-66
2022/11/30 03:11:04;;;;;;;29.93;21.00;;;;;;;8.56;100.00;99785.78;5072261;28;20187;-66
2022/11/30 03:13:31;;;;;;;21.57;16.17;;;;;;;8.61;100.00;99791.38;5072174;28;20683;-66
2022/11/30 03:15:58;;;;;;;18.57;15.90;;;;;;;8.66;100.00;99791.69;5072506;28;20277;-66
2022/11/30 03:18:26;;;;;;;20.77;15.30;;;;;;;8.67;100.00;99798.63;5072408;28;20227;-66
2022/11/30 03:20:53;;;;;;;17.10;12.50;;;;;;;8.66;100.00;99791.69;5072632;28;20257;-66
2022/11/30 03:23:20;;;;;;;15.20;12.60;;;;;;;8.68;100.00;99789.66;5072320;28;20249;-66
2022/11/30 03:25:46;;;;;;;14.27;11.77;;;;;;;8.65;100.00;99790.00;5072438;28;20200;-66
2022/11/30 03:28:13;;;;;;;20.13;13.77;;;;;;;8.66;100.00;99791.69;5071972;28;20253;-66
2022/11/30 03:30:39;;;;;;;18.60;14.50;;;;;;;8.64;100.00;99783.91;5083795;28;20663;-66
2022/11/30 03:33:06;;;;;;;15.77;12.13;;;;;;;8.72;100.00;99804.22;5092157;28;20655;-66
2022/11/30 03:35:34;;;;;;;17.17;13.60;;;;;;;8.75;100.00;99786.16;5092758;28;20218;-66
2022/11/30 03:38:01;;;;;;;12.90;11.33;;;;;;;8.72;100.00;99788.31;5092080;28;20256;-66
2022/11/30 03:40:27;;;;;;;10.43;9.43;;;;;;;8.71;100.00;99794.63;5092078;28;20571;-66
2022/11/30 03:42:54;;;;;;;12.13;10.63;;;;;;;8.70;100.00;99787.69;5092343;28;20640;-66
2022/11/30 03:45:21;;;;;;;11.80;10.53;;;;;;;8.77;100.00;99800.03;5093173;28;20264;-66
2022/11/30 03:47:47;;;;;;;12.63;11.33;;;;;;;8.77;100.00;99802.69;5092308;28;20191;-66
2022/11/30 03:50:14;;;;;;;12.90;11.10;;;;;;;8.74;100.00;99799.56;5092006;28;20245;-66
2022/11/30 03:52:42;;;;;;;12.40;11.13;;;;;;;8.71;100.00;99799.91;5092279;28;20199;-66
2022/11/30 03:55:10;;;;;;;11.60;10.33;;;;;;;8.76;100.00;99802.84;5091832;28;20698;-66
2022/11/30 03:57:36;;;;;;;11.90;10.80;;;;;;;8.80;100.00;99796.19;5091847;28;20248;-67
2022/11/30 04:00:05;;;;;;;52.93;36.10;;;;;;;8.82;100.00;99802.16;5092252;28;20187;-67
2022/11/30 04:02:32;;;;;;;13.37;11.90;;;;;;;8.83;100.00;99793.22;5092417;28;20195;-66
2022/11/30 04:04:59;;;;;;;11.20;10.17;;;;;;;8.70;100.00;99777.91;5092957;28;20195;-66
2022/11/30 04:07:25;;;;;;;11.80;10.60;;;;;;;8.81;100.00;99789.91;5078787;28;20195;-66
2022/11/30 04:09:53;;;;;;;11.20;10.20;;;;;;;8.61;100.00;99757.78;5071920;28;20189;-66
2022/11/30 04:12:20;;;;;;;10.60;9.60;;;;;;;8.88;100.00;99796.97;5078196;28;20191;-66
2022/11/30 04:14:47;;;;;;;9.67;8.80;;;;;;;8.89;100.00;99800.44;5092293;28;20612;-65
2022/11/30 04:17:13;;;;;;;10.70;9.60;;;;;;;8.87;100.00;99792.66;5092126;28;20272;-65
2022/11/30 04:19:40;;;;;;;11.77;10.50;;;;;;;8.87;100.00;99811.19;5092070;28;20236;-66
2022/11/30 04:22:07;;;;;;;9.10;8.40;;;;;;;8.88;100.00;99801.44;5091775;28;20249;-66
2022/11/30 04:24:33;;;;;;;29.07;20.40;;;;;;;8.88;100.00;99806.75;5091677;28;20224;-66
2022/11/30 04:27:01;;;;;;;12.13;11.03;;;;;;;8.85;100.00;99809.72;5091705;28;20217;-66
2022/11/30 04:29:28;;;;;;;10.03;9.13;;;;;;;8.87;100.00;99815.69;5090311;28;20191;-66
2022/11/30 04:31:55;;;;;;;8.07;7.43;;;;;;;8.89;100.00;99811.03;5074001;28;20196;-67
2022/11/30 04:34:22;;;;;;;10.73;9.57;;;;;;;8.88;100.00;99806.75;5075146;28;20195;-66
2022/11/30 04:36:48;;;;;;;7.97;7.47;;;;;;;8.91;100.00;99809.03;5075453;28;20227;-65
2022/11/30 04:39:15;;;;;;;7.20;6.77;;;;;;;8.85;100.00;99796.50;5075395;28;20192;-66
2022/11/30 04:41:42;;;;;;;6.77;6.30;;;;;;;8.94;100.00;99811.34;5075369;28;20200;-67
2022/11/30 04:44:10;;;;;;;6.20;5.80;;;;;;;8.95;100.00;99807.69;5074984;28;20656;-65
2022/11/30 04:46:37;;;;;;;6.07;5.67;;;;;;;8.92;100.00;99808.88;5075067;28;20664;-67
2022/11/30 04:49:03;;;;;;;7.17;6.67;;;;;;;8.92;100.00;99808.03;5075234;28;20195;-68
2022/11/30 04:51:30;;;;;;;6.17;5.77;;;;;;;8.88;100.00;99806.75;5074777;28;20200;-67
2022/11/30 04:53:57;;;;;;;7.70;7.00;;;;;;;8.90;100.00;99807.41;5075182;28;20188;-66
2022/11/30 04:56:23;;;;;;;6.60;6.07;;;;;;;8.86;100.00;99803.47;5074739;28;20257;-65
2022/11/30 04:58:50;;;;;;;6.60;6.03;;;;;;;8.78;100.00;99816.75;5074635;28;20246;-66
2022/11/30 05:01:18;;;;;;;7.00;6.50;;;;;;;8.60;100.00;99819.69;5074707;28;20656;-65
2022/11/30 05:03:45;;;;;;;6.90;6.33;;;;;;;8.65;100.00;99819.16;5074482;28;20196;-66
2022/11/30 05:06:11;;;;;;;7.67;6.17;;;;;;;8.48;100.00;99814.94;5077874;28;20195;-66
2022/11/30 05:08:38;;;;;;;6.30;5.90;;;;;;;8.29;100.00;99799.53;5094772;28;20195;-66
2022/11/30 05:11:05;;;;;;;5.77;5.37;;;;;;;8.39;100.00;99813.38;5094861;28;20731;-66
2022/11/30 05:13:32;;;;;;;6.60;6.07;;;;;;;8.34;100.00;99828.94;5095498;28;20195;-66
2022/11/30 05:15:58;;;;;;;6.87;6.47;;;;;;;8.31;100.00;99818.69;5095288;28;20219;-65
2022/11/30 05:18:28;;;;;;;6.03;5.50;;;;;;;8.38;100.00;99824.97;5095095;28;20227;-66
2022/11/30 05:20:55;;;;;;;5.97;5.67;;;;;;;8.49;100.00;99824.56;5094514;28;20630;-66
2022/11/30 05:23:22;;;;;;;5.93;5.53;;;;;;;8.53;100.00;99820.56;5094516;28;20724;-66
2022/11/30 05:25:49;;;;;;;5.80;5.40;;;;;;;8.43;100.00;99831.38;5095042;28;20257;-66
2022/11/30 05:28:16;;;;;;;5.90;5.53;;;;;;;8.53;100.00;99831.16;5094653;28;20616;-65
2022/11/30 05:30:43;;;;;;;5.33;4.83;;;;;;;8.45;100.00;99839.16;5082790;28;20191;-66
2022/11/30 05:33:10;;;;;;;5.07;4.73;;;;;;;8.36;100.00;99843.66;5073879;28;20655;-66
2022/11/30 05:35:38;;;;;;;5.83;5.43;;;;;;;8.43;100.00;99843.78;5074045;28;20219;-66
2022/11/30 05:38:05;;;;;;;5.63;5.23;;;;;;;8.56;100.00;99849.31;5074208;28;20261;-65
2022/11/30 05:40:32;;;;;;;5.60;5.20;;;;;;;8.57;100.00;99857.09;5073988;28;20195;-64
2022/11/30 05:43:00;;;;;;;5.20;4.80;;;;;;;8.50;100.00;99855.31;5072260;28;20196;-64
2022/11/30 05:45:27;;;;;;;4.40;4.10;;;;;;;8.28;100.00;99856.09;5093110;28;20226;-66
2022/11/30 05:47:54;;;;;;;5.73;5.23;;;;;;;8.18;100.00;99860.75;5094016;28;20728;-65
2022/11/30 05:50:21;;;;;;;4.33;4.13;;;;;;;8.18;100.00;99847.50;5094359;28;20195;-65
2022/11/30 05:52:49;;;;;;;4.57;4.27;;;;;;;8.05;100.00;99855.19;5080493;28;20196;-65
2022/11/30 05:55:16;;;;;;;7.90;7.40;;;;;;;8.11;100.00;99860.59;5088415;28;20242;-67
2022/11/30 05:57:43;;;;;;;5.20;4.90;;;;;;;8.21;100.00;99866.53;5073649;28;20253;-65
2022/11/30 06:00:10;;;;;;;5.30;4.80;;;;;;;8.22;100.00;99864.72;5084279;28;20236;-66
2022/11/30 06:02:37;;;;;;;9.27;8.67;;;;;;;8.27;100.00;99850.00;5093926;28;20198;-66
2022/11/30 06:05:04;;;;;;;4.63;4.33;;;;;;;8.29;100.00;99852.47;5094228;28;20187;-66
2022/11/30 06:07:31;;;;;;;5.77;5.40;;;;;;;8.21;100.00;99860.44;5080660;28;20203;-65
2022/11/30 06:09:59;;;;;;;5.50;5.10;;;;;;;8.27;100.00;99859.72;5093959;28;20248;-65
2022/11/30 06:12:26;;;;;;;5.07;4.77;;;;;;;8.36;100.00;99871.94;5093388;28;20731;-64
2022/11/30 06:14:52;;;;;;;4.00;3.70;;;;;;;8.15;100.00;99867.22;5093672;28;20252;-65
2022/11/30 06:17:19;;;;;;;5.40;4.90;;;;;;;8.22;100.00;99862.09;5093223;28;20219;-66
2022/11/30 06:19:46;;;;;;;4.77;4.47;;;;;;;8.29;100.00;99869.16;5093323;28;20646;-66
2022/11/30 06:22:12;;;;;;;5.07;4.77;;;;;;;8.34;100.00;99876.59;5093793;28;20203;-64
2022/11/30 06:24:39;;;;;;;5.67;5.27;;;;;;;8.22;100.00;99873.50;5091731;28;20191;-65
2022/11/30 06:27:07;;;;;;;4.67;4.37;;;;;;;8.22;100.00;99878.78;5073338;28;20196;-65
2022/11/30 06:29:34;;;;;;;7.07;6.57;;;;;;;8.08;100.00;99879.47;5075219;28;20656;-64
2022/11/30 06:32:00;;;;;;;5.70;5.30;;;;;;;8.02;100.00;99882.81;5093198;28;20187;-66
2022/11/30 06:34:27;;;;;;;8.80;8.00;;;;;;;8.07;100.00;99885.75;5093424;28;20252;-64
2022/11/30 06:36:54;;;;;;;6.27;4.53;;;;;;;7.99;100.00;99888.41;5093076;28;20233;-64
2022/11/30 06:39:21;;;;;;;6.40;5.17;;;;;;;8.03;100.00;99883.59;5093419;28;20198;-66
2022/11/30 06:41:47;;;;;;;5.60;5.20;;;;;;;7.98;100.00;99885.94;5092441;28;20192;-65
2022/11/30 06:44:15;;;;;;;6.63;6.13;;;;;;;7.75;100.00;99890.28;5091138;28;20195;-66
2022/11/30 06:46:42;;;;;;;6.10;5.60;;;;;;;7.91;100.00;99895.53;5091330;28;20232;-66
2022/11/30 06:49:09;;;;;;;6.07;5.57;;;;;;;7.88;100.00;99890.59;5088043;28;20263;-63
2022/11/30 06:51:36;;;;;;;5.20;4.90;;;;;;;7.91;100.00;99879.66;5092117;28;20187;-65
2022/11/30 06:54:03;;;;;;;7.00;6.07;;;;;;;8.01;100.00;99888.25;5090658;28;20201;-64
2022/11/30 06:56:29;;;;;;;7.37;6.67;;;;;;;8.04;100.00;99882.63;5092301;28;20647;-63
2022/11/30 06:58:56;;;;;;;5.90;5.47;;;;;;;7.98;100.00;99883.28;5092014;28;20195;-64
2022/11/30 07:01:24;;;;;;;8.80;8.20;;;;;;;8.06;100.00;99889.41;5082997;28;20244;-65
2022/11/30 07:03:51;;;;;;;8.33;7.53;;;;;;;8.14;100.00;99891.19;5080505;28;20188;-65
2022/11/30 07:06:18;;;;;;;5.60;5.20;;;;;;;8.22;100.00;99902.59;5080640;28;20555;-66
2022/11/30 07:08:44;;;;;;;4.83;4.63;;;;;;;8.24;100.00;99897.13;5080372;28;20191;-65
2022/11/30 07:11:12;;;;;;;6.37;5.87;;;;;;;8.17;100.00;99901.44;5087021;28;20192;-66
2022/11/30 07:13:39;;;;;;;7.03;6.30;;;;;;;8.22;100.00;99899.97;5081513;28;20718;-65
2022/11/30 07:16:07;;;;;;;5.60;5.27;;;;;;;8.26;100.00;99895.13;5087540;28;20215;-66
2022/11/30 07:18:36;;;;;;;5.60;5.30;;;;;;;8.32;100.00;99899.72;5088545;28;20257;-67
2022/11/30 07:21:04;;;;;;;4.77;4.47;;;;;;;8.32;100.00;99903.22;5086992;28;20195;-66
2022/11/30 07:26:15;;;;;;;5.63;5.20;;;;;;;8.43;100.00;99902.84;5087059;28;20194;-66
2022/11/30 07:28:45;;;;;;;4.40;4.13;;;;;;;8.45;100.00;99905.31;5089798;28;20218;-67
2022/11/30 07:31:17;;;;;;;4.80;4.50;;;;;;;8.47;100.00;99908.63;5088150;28;20582;-68
2022/11/30 07:33:46;;;;;;;17.77;12.73;;;;;;;8.49;100.00;99901.34;5090073;28;20256;-67
2022/11/30 07:36:12;;;;;;;18.50;9.50;;;;;;;8.49;100.00;99911.94;5089751;28;20514;-66
2022/11/30 07:38:39;;;;;;;36.07;19.73;;;;;;;8.45;100.00;99902.69;5090509;28;20621;-67
2022/11/30 07:41:06;;;;;;;17.50;13.60;;;;;;;8.48;100.00;99907.59;5089692;28;20723;-67
2022/11/30 07:43:33;;;;;;;11.20;8.90;;;;;;;8.47;100.00;99908.63;5087562;28;20203;-65
2022/11/30 07:46:00;;;;;;;39.90;18.10;;;;;;;8.53;100.00;99915.88;5089463;28;20622;-65
2022/11/30 07:48:26;;;;;;;35.23;16.87;;;;;;;8.49;100.00;99917.22;5088363;28;20285;-65
2022/11/30 07:51:01;;;;;;;12.93;6.87;;;;;;;8.44;100.00;99912.44;5089899;28;20203;-64
2022/11/30 07:53:28;;;;;;;10.93;7.57;;;;;;;8.43;100.00;99913.44;5090559;28;20750;-62
2022/11/30 07:56:01;;;;;;;4.17;3.87;;;;;;;8.90;100.00;99910.72;5091227;28;20566;-64
2022/11/30 07:58:28;;;;;;;11.67;7.90;;;;;;;9.42;100.00;99917.78;5091385;28;20183;-63
2022/11/30 08:00:55;;;;;;;8.57;6.73;;;;;;;9.78;100.00;99915.28;5091227;28;20259;-68
2022/11/30 08:03:21;;;;;;;15.93;8.73;;;;;;;9.52;100.00;99923.63;5091238;28;20188;-65
2022/11/30 08:05:48;;;;;;;15.53;9.57;;;;;;;9.28;100.00;99921.19;5091743;28;20632;-65
2022/11/30 08:08:16;;;;;;;7.47;6.00;;;;;;;9.26;100.00;99922.38;5075348;28;20200;-65
2022/11/30 08:10:43;;;;;;;17.70;8.27;;;;;;;9.21;100.00;99916.78;5074750;28;20192;-65
2022/11/30 08:13:09;;;;;;;12.17;6.87;;;;;;;9.12;100.00;99920.50;5074564;28;20713;-64
2022/11/30 08:15:36;;;;;;;13.53;7.10;;;;;;;9.12;100.00;99923.13;5074684;28;20722;-65
2022/11/30 08:18:05;;;;;;;11.00;5.63;;;;;;;9.07;100.00;99917.56;5074758;28;20652;-65
2022/11/30 08:20:32;;;;;;;10.47;5.97;;;;;;;9.04;100.00;99913.44;5074918;28;20279;-66
2022/11/30 08:22:59;;;;;;;7.30;5.47;;;;;;;9.08;100.00;99913.91;5074767;28;20229;-66
2022/11/30 08:25:27;;;;;;;5.40;4.90;;;;;;;8.82;100.00;99913.41;5074368;28;20188;-65
2022/11/30 08:27:54;;;;;;;9.80;7.80;;;;;;;8.87;100.00;99916.34;5076927;28;20296;-65
2022/11/30 08:30:21;;;;;;;7.57;6.50;;;;;;;8.89;100.00;99914.34;5083315;28;20188;-65
2022/11/30 08:32:48;;;;;;;6.33;5.70;;;;;;;8.90;100.00;99916.00;5079671;28;20224;-64
2022/11/30 08:35:15;;;;;;;4.03;3.73;;;;;;;8.88;100.00;99912.69;5074258;28;20626;-66
2022/11/30 08:37:41;;;;;;;5.20;4.70;;;;;;;8.89;100.00;99914.34;5080292;28;20280;-66
2022/11/30 08:40:09;;;;;;;6.77;4.20;;;;;;;8.94;100.00;99912.81;5075045;28;20245;-66
2022/11/30 08:42:37;;;;;;;5.23;4.30;;;;;;;8.91;100.00;99913.16;5074626;28;20187;-66
2022/11/30 08:45:05;;;;;;;3.50;3.30;;;;;;;8.90;100.00;99905.41;5080086;28;20213;-67
2022/11/30 08:47:31;;;;;;;4.67;4.27;;;;;;;8.90;100.00;99905.41;5074546;28;20260;-65
2022/11/30 08:49:59;;;;;;;5.00;4.70;;;;;;;8.96;100.00;99899.41;5074485;28;20192;-66
2022/11/30 08:52:27;;;;;;;4.67;4.37;;;;;;;8.95;100.00;99908.34;5074003;28;20729;-66
2022/11/30 08:54:53;;;;;;;8.63;6.30;;;;;;;8.87;100.00;99911.06;5074230;28;20196;-66
2022/11/30 08:57:21;;;;;;;4.43;3.97;;;;;;;8.83;100.00;99904.47;5073999;28;20703;-66
2022/11/30 08:59:49;;;;;;;7.20;5.80;;;;;;;8.91;100.00;99910.50;5074765;28;20249;-68
2022/11/30 09:02:18;;;;;;;7.97;7.23;;;;;;;8.75;100.00;99915.09;5078999;28;20612;-67
2022/11/30 09:04:46;;;;;;;11.07;10.13;;;;;;;8.70;100.00;99910.31;5073634;28;20663;-67
2022/11/30 09:07:13;;;;;;;11.33;7.07;;;;;;;8.77;100.00;99910.44;5085634;28;20199;-66
2022/11/30 09:09:39;;;;;;;6.37;5.90;;;;;;;8.82;100.00;99913.41;5094168;28;20191;-68
2022/11/30 09:12:07;;;;;;;7.57;6.97;;;;;;;8.72;100.00;99912.78;5094354;28;20191;-68
2022/11/30 09:14:34;;;;;;;5.37;4.87;;;;;;;8.82;100.00;99908.91;5094558;28;20199;-68
2022/11/30 09:17:02;;;;;;;3.37;3.17;;;;;;;8.76;100.00;99903.50;5093465;28;20272;-67
2022/11/30 09:19:29;;;;;;;4.53;4.20;;;;;;;8.85;100.00;99899.78;5094390;28;20195;-68
2022/11/30 09:21:56;;;;;;;4.27;3.97;;;;;;;8.86;100.00;99899.63;5093228;28;20196;-68
2022/11/30 09:24:22;;;;;;;4.73;4.27;;;;;;;8.96;100.00;99899.41;5093752;28;20555;-66
2022/11/30 09:26:49;;;;;;;5.80;5.40;;;;;;;9.02;100.00;99901.34;5094274;28;20199;-67
2022/11/30 09:29:16;;;;;;;4.73;4.43;;;;;;;8.96;100.00;99899.41;5094477;28;20187;-67
2022/11/30 09:31:42;;;;;;;5.17;4.77;;;;;;;8.98;100.00;99897.38;5073476;28;20200;-66
2022/11/30 09:34:12;;;;;;;9.30;7.70;;;;;;;9.05;100.00;99895.69;5073307;28;20192;-65
2022/11/30 09:36:39;;;;;;;7.37;6.50;;;;;;;8.92;100.00;99890.16;5078823;28;20263;-66
2022/11/30 09:39:06;;;;;;;7.27;6.60;;;;;;;8.80;100.00;99867.72;5073202;28;20192;-65
2022/11/30 09:41:57;;;;;;;6.80;6.20;;;;;;;9.02;100.00;99898.69;5088099;28;20210;-66
2022/11/30 09:44:30;;;;;;;7.23;6.70;;;;;;;8.96;100.00;99889.63;5093717;28;20187;-66
2022/11/30 09:47:04;;;;;;;9.53;7.17;;;;;;;9.14;100.00;99892.81;5094011;28;20192;-67
2022/11/30 09:49:35;;;;;;;6.43;5.93;;;;;;;9.16;100.00;99887.34;5093832;28;20236;-66
2022/11/30 09:52:05;;;;;;;7.50;6.80;;;;;;;9.19;100.00;99889.63;5093152;28;20188;-65
2022/11/30 09:54:37;;;;;;;10.17;9.07;;;;;;;8.86;100.00;99893.53;5093914;28;20256;-67
2022/11/30 09:57:14;;;;;;;7.10;6.60;;;;;;;8.92;100.00;99892.81;5093344;28;20279;-67
2022/11/30 09:59:51;;;;;;;7.03;6.53;;;;;;;8.88;100.00;99886.22;5093102;28;20186;-67
2022/11/30 10:02:18;;;;;;;7.57;6.90;;;;;;;8.99;100.00;99888.47;5092994;28;20187;-67
2022/11/30 10:04:46;;;;;;;8.17;7.47;;;;;;;9.16;100.00;99890.00;5093291;28;20248;-68
2022/11/30 10:07:32;;;;;;;7.20;6.70;;;;;;;9.05;100.00;99898.34;5081083;28;20222;-67
2022/11/30 10:10:09;;;;;;;7.37;6.83;;;;;;;9.17;100.00;99894.28;5072540;28;20188;-66
2022/11/30 10:12:41;;;;;;;8.00;7.30;;;;;;;9.27;100.00;99902.84;5072824;28;20266;-66
2022/11/30 10:15:27;;;;;;;6.27;5.87;;;;;;;9.24;100.00;99897.88;5071984;28;20652;-67
2022/11/30 10:17:55;;;;;;;6.23;5.63;;;;;;;9.30;100.00;99895.34;5072280;28;20243;-66
2022/11/30 10:20:52;;;;;;;8.40;7.80;;;;;;;9.37;100.00;99898.09;5072306;28;20195;-65
2022/11/30 10:23:33;;;;;;;9.90;8.73;;;;;;;9.42;100.00;99891.25;5055457;28;20253;-68
2022/11/30 10:26:07;;;;;;;8.33;7.53;;;;;;;9.43;100.00;99897.38;5071435;28;20191;-67
2022/11/30 10:28:48;;;;;;;7.47;6.83;;;;;;;9.47;100.00;99890.69;5070433;28;20781;-66
2022/11/30 10:31:17;;;;;;;6.80;6.27;;;;;;;9.38;100.00;99900.56;5086050;28;20183;-66
2022/11/30 10:33:47;;;;;;;7.00;6.50;;;;;;;9.42;100.00;99891.25;5091427;28;20324;-66
2022/11/30 10:36:21;;;;;;;12.50;11.20;;;;;;;9.51;100.00;99894.66;5085550;28;20741;-67
2022/11/30 10:38:51;;;;;;;8.90;8.20;;;;;;;9.54;100.00;99889.84;5092046;28;20203;-67
2022/11/30 10:41:22;;;;;;;7.87;7.27;;;;;;;9.56;100.00;99887.81;5091314;28;20194;-67
2022/11/30 10:43:55;;;;;;;7.53;6.87;;;;;;;9.65;100.00;99897.31;5092142;28;20272;-67
2022/11/30 10:46:26;;;;;;;8.10;7.40;;;;;;;9.59;100.00;99902.53;5092054;28;20187;-67
2022/11/30 10:48:58;;;;;;;8.03;7.30;;;;;;;9.48;100.00;99905.63;5092119;28;20252;-67
2022/11/30 10:51:27;;;;;;;6.73;6.33;;;;;;;9.49;100.00;99896.66;5092149;28;20241;-67
2022/11/30 10:53:54;;;;;;;6.67;6.17;;;;;;;9.30;100.00;99903.28;5091968;28;20460;-67
2022/11/30 10:56:21;;;;;;;6.63;6.03;;;;;;;9.29;100.00;99891.03;5091783;28;20243;-67
2022/11/30 10:58:54;;;;;;;6.17;5.60;;;;;;;9.41;100.00;99894.91;5091346;28;20651;-67
2022/11/30 11:01:39;;;;;;;6.70;6.00;;;;;;;9.47;100.00;99893.34;5091979;28;20711;-67
2022/11/30 11:04:15;;;;;;;6.57;5.97;;;;;;;9.53;100.00;99895.31;5091972;28;20217;-67
2022/11/30 11:06:46;;;;;;;6.30;5.80;;;;;;;9.56;100.00;99892.31;5085124;28;20241;-67
2022/11/30 11:09:33;;;;;;;7.07;6.67;;;;;;;9.52;99.99;99891.00;5071582;28;20194;-67
2022/11/30 11:12:01;;;;;;;7.13;6.53;;;;;;;9.58;100.00;99882.31;5071151;28;20192;-67
2022/11/30 11:14:29;;;;;;;8.30;7.53;;;;;;;9.57;99.93;99883.34;5071424;28;20720;-67
2022/11/30 11:16:58;;;;;;;14.13;8.80;;;;;;;9.49;99.43;99880.75;5070893;28;20268;-67
2022/11/30 11:19:37;;;;;;;11.20;8.73;;;;;;;9.59;100.00;99873.38;5071751;28;20576;-67
2022/11/30 11:22:14;;;;;;;9.10;8.20;;;;;;;9.64;99.46;99874.47;5071661;28;20188;-67
2022/11/30 11:24:40;;;;;;;10.10;9.07;;;;;;;9.72;99.84;99870.94;5071095;28;20188;-67
2022/11/30 11:27:07;;;;;;;12.73;9.93;;;;;;;9.78;99.64;99875.50;5070966;28;20199;-67
2022/11/30 11:29:35;;;;;;;18.50;11.77;;;;;;;9.75;99.23;99871.38;5073334;28;20196;-67
2022/11/30 11:32:23;;;;;;;8.43;7.73;;;;;;;9.61;98.53;99866.06;5091447;28;20248;-67
2022/11/30 11:34:50;;;;;;;13.07;10.77;;;;;;;9.39;99.25;99864.28;5086599;28;20227;-67
2022/11/30 11:37:25;;;;;;;11.83;10.63;;;;;;;9.31;99.70;99869.66;5085203;28;20215;-67
2022/11/30 11:40:05;;;;;;;8.30;7.53;;;;;;;9.12;100.00;99867.50;5091422;28;20194;-67